CheckWX is a tool to help pilots better visualize weather data.  It is not intended as a substitute for an official pre-flight weather briefing.

15:30:36 UTC

KIKV METAR
Ankeny Regional Airport
Ankeny, Iowa, USA
Current

16 mins ago

KIKV 261515Z AUTO 29007KT 1 3/4SM BR OVC003 M03/M03 A2998 RMK AO2
Observed
Jan-26 @ 15:15 UTC
Wind
  • 290° at 7 KTS
Visibility
1 3/4 SM
Flight Rules
LIFR
Conditions
Mist
Cloud Levels
  • Overcast at 300' AGL
Temperature
-3°C / 27°F
Dewpoint
-3°C / 27°F
Humidity
100%
Altimeter
29.98" Hg
Pressure
1015.22 hPa
Previous

36 mins ago

KIKV 261455Z AUTO 27005KT 1 1/2SM BR OVC003 M03/M03 A2998 RMK AO2
Observed
Jan-26 @ 14:55 UTC
Wind
  • 270° at 5 KTS
Visibility
1 1/2 SM
Flight Rules
LIFR
Conditions
Mist
Cloud Levels
  • Overcast at 300' AGL
Temperature
-3°C / 27°F
Dewpoint
-3°C / 27°F
Humidity
100%
Altimeter
29.98" Hg
Pressure
1015.22 hPa
Previous

56 mins ago

KIKV 261435Z AUTO VRB04KT 1 1/2SM BR OVC003 M03/M03 A2998 RMK AO2
Observed
Jan-26 @ 14:35 UTC
Wind
  • Variable at 4 KTS
Visibility
1 1/2 SM
Flight Rules
LIFR
Conditions
Mist
Cloud Levels
  • Overcast at 300' AGL
Temperature
-3°C / 27°F
Dewpoint
-3°C / 27°F
Humidity
100%
Altimeter
29.98" Hg
Pressure
1015.22 hPa